Time;durP1;ratioP1;P1;durP2;ratioP2;P2;SDS_P1;SDS_P2;PMS_P1;PMS_P2;Temp;Humidity;BMP_temperature;BMP_pressure;BME280_temperature;BME280_humidity;BME280_pressure;Samples;Min_cycle;Max_cycle;Signal;HPM_P1;HPM_P2
2023/06/18 00:00:40;;;;;;;0.03;0.03;;;;;;;;;;5037086;28;20313;-69
2023/06/18 00:03:06;;;;;;;0.10;0.10;;;;;;;;;;5055126;28;20213;-68
2023/06/18 00:05:33;;;;;;;0.10;0.10;;;;;;;;;;5036445;28;20306;-68
2023/06/18 00:07:59;;;;;;;0.00;0.00;;;;;;;;;;5055426;28;20220;-68
2023/06/18 00:10:25;;;;;;;0.03;0.03;;;;;;;;;;5035484;28;20239;-68
2023/06/18 00:12:53;;;;;;;0.13;0.13;;;;;;;;;;5056523;28;20446;-67
2023/06/18 00:15:19;;;;;;;0.20;0.20;;;;;;;;;;5034919;28;20432;-68
2023/06/18 00:17:46;;;;;;;0.10;0.10;;;;;;;;;;5057128;28;20211;-68
2023/06/18 00:20:12;;;;;;;0.08;0.08;;;;;;;;;;5034614;28;20207;-69
2023/06/18 00:22:39;;;;;;;0.00;0.00;;;;;;;;;;5061725;28;20216;-68
2023/06/18 00:25:06;;;;;;;0.00;0.00;;;;;;;;;;5046850;28;20274;-69
2023/06/18 00:27:32;;;;;;;0.10;0.10;;;;;;;;;;5035623;28;20259;-68
2023/06/18 00:30:00;;;;;;;0.00;0.00;;;;;;;;;;5046777;28;20330;-68
2023/06/18 00:32:28;;;;;;;0.10;0.10;;;;;;;;;;5052420;28;20487;-68
2023/06/18 00:34:54;;;;;;;0.00;0.00;;;;;;;;;;5046652;28;20231;-68
2023/06/18 00:37:21;;;;;;;0.05;0.05;;;;;;;;;;5052380;28;20248;-69
2023/06/18 00:39:48;;;;;;;0.05;0.05;;;;;;;;;;5046870;28;20213;-68
2023/06/18 00:42:15;;;;;;;0.05;0.05;;;;;;;;;;5051868;28;20246;-68
2023/06/18 00:44:41;;;;;;;0.00;0.00;;;;;;;;;;5046534;28;20225;-68
2023/06/18 00:47:11;;;;;;;0.00;0.00;;;;;;;;;;5052025;28;20253;-68
2023/06/18 00:49:38;;;;;;;0.22;0.22;;;;;;;;;;5046762;28;20299;-68
2023/06/18 00:52:05;;;;;;;1.67;1.55;;;;;;;;;;5051374;28;20321;-69
2023/06/18 00:54:32;;;;;;;0.08;0.08;;;;;;;;;;5046819;28;20229;-68
2023/06/18 00:56:59;;;;;;;0.30;0.30;;;;;;;;;;5050783;28;20449;-68
2023/06/18 00:59:27;;;;;;;0.00;0.00;;;;;;;;;;5047153;28;20253;-68
2023/06/18 01:01:54;;;;;;;0.00;0.00;;;;;;;;;;5049774;28;20240;-68
2023/06/18 01:04:23;;;;;;;0.10;0.10;;;;;;;;;;5048078;28;20451;-68
2023/06/18 01:06:51;;;;;;;0.03;0.03;;;;;;;;;;5049248;28;20248;-68
2023/06/18 01:09:21;;;;;;;0.10;0.10;;;;;;;;;;5047965;28;20282;-68
2023/06/18 01:11:47;;;;;;;0.00;0.00;;;;;;;;;;5048882;28;20241;-68
2023/06/18 01:14:14;;;;;;;0.10;0.10;;;;;;;;;;5048441;28;20298;-68
2023/06/18 01:16:45;;;;;;;0.32;0.32;;;;;;;;;;5047541;28;20256;-68
2023/06/18 01:19:21;;;;;;;0.10;0.10;;;;;;;;;;5049086;28;20432;-68
2023/06/18 01:21:49;;;;;;;0.05;0.05;;;;;;;;;;5048801;28;20269;-68
2023/06/18 01:24:20;;;;;;;0.03;0.03;;;;;;;;;;5048449;28;20210;-68
2023/06/18 01:26:46;;;;;;;0.10;0.10;;;;;;;;;;5048576;28;20323;-68
2023/06/18 01:29:14;;;;;;;0.10;0.10;;;;;;;;;;5048547;28;20273;-68
2023/06/18 01:31:44;;;;;;;0.00;0.00;;;;;;;;;;5047502;28;20451;-68
2023/06/18 01:34:12;;;;;;;0.10;0.10;;;;;;;;;;5048721;28;20404;-68
2023/06/18 01:36:47;;;;;;;0.10;0.10;;;;;;;;;;5047196;28;20300;-69
2023/06/18 01:39:19;;;;;;;0.00;0.00;;;;;;;;;;5048495;28;20264;-68
2023/06/18 01:41:46;;;;;;;0.10;0.10;;;;;;;;;;5048148;28;20503;-68
2023/06/18 01:44:18;;;;;;;0.00;0.00;;;;;;;;;;5048391;28;20203;-68
2023/06/18 01:46:45;;;;;;;0.10;0.10;;;;;;;;;;5047857;28;20490;-70
2023/06/18 01:49:12;;;;;;;0.05;0.05;;;;;;;;;;5048033;28;20396;-68
2023/06/18 01:51:39;;;;;;;0.10;0.10;;;;;;;;;;5047020;28;20243;-69
2023/06/18 01:54:07;;;;;;;0.00;0.00;;;;;;;;;;5048716;28;20227;-68
2023/06/18 01:56:36;;;;;;;0.10;0.10;;;;;;;;;;5046306;28;20312;-68
2023/06/18 01:59:03;;;;;;;0.10;0.10;;;;;;;;;;5048990;28;20256;-68
2023/06/18 02:01:31;;;;;;;0.10;0.10;;;;;;;;;;5045630;28;20246;-68
2023/06/18 02:03:57;;;;;;;0.08;0.08;;;;;;;;;;5049990;28;20199;-69
2023/06/18 02:06:24;;;;;;;0.05;0.05;;;;;;;;;;5044803;28;20241;-68
2023/06/18 02:08:50;;;;;;;0.00;0.00;;;;;;;;;;5050759;28;20205;-68
2023/06/18 02:11:16;;;;;;;0.10;0.10;;;;;;;;;;5043806;28;20256;-68
2023/06/18 02:13:44;;;;;;;0.10;0.10;;;;;;;;;;5051220;28;20207;-68
2023/06/18 02:16:10;;;;;;;0.10;0.10;;;;;;;;;;5042965;28;20272;-68
2023/06/18 02:18:37;;;;;;;0.10;0.10;;;;;;;;;;5052295;28;20209;-68
2023/06/18 02:21:03;;;;;;;0.00;0.00;;;;;;;;;;5041755;28;20242;-68
2023/06/18 02:23:29;;;;;;;0.03;0.03;;;;;;;;;;5053110;28;20211;-68
2023/06/18 02:25:56;;;;;;;0.10;0.10;;;;;;;;;;5041040;28;20305;-68
2023/06/18 02:28:23;;;;;;;0.10;0.10;;;;;;;;;;5053889;28;20368;-68
2023/06/18 02:30:51;;;;;;;0.10;0.10;;;;;;;;;;5040004;28;20248;-68
2023/06/18 02:33:18;;;;;;;0.20;0.20;;;;;;;;;;5054544;28;20242;-67
2023/06/18 02:35:45;;;;;;;0.10;0.10;;;;;;;;;;5039256;28;20272;-68
2023/06/18 02:38:11;;;;;;;0.03;0.03;;;;;;;;;;5055337;28;20256;-68
2023/06/18 02:40:38;;;;;;;0.10;0.10;;;;;;;;;;5038383;28;20244;-68
2023/06/18 02:43:05;;;;;;;0.10;0.10;;;;;;;;;;5055229;28;20286;-68
2023/06/18 02:45:32;;;;;;;3.20;3.10;;;;;;;;;;5037344;28;20317;-68
2023/06/18 02:48:00;;;;;;;0.10;0.10;;;;;;;;;;5056613;28;20365;-68
2023/06/18 02:50:26;;;;;;;0.00;0.00;;;;;;;;;;5036905;28;20454;-68
2023/06/18 02:52:55;;;;;;;0.10;0.10;;;;;;;;;;5057200;28;20246;-69
2023/06/18 02:55:22;;;;;;;0.47;0.47;;;;;;;;;;5036060;28;20468;-68
2023/06/18 02:57:48;;;;;;;0.05;0.05;;;;;;;;;;5057718;28;20205;-68
2023/06/18 03:00:15;;;;;;;0.00;0.00;;;;;;;;;;5034802;28;20291;-68
2023/06/18 03:02:42;;;;;;;0.15;0.15;;;;;;;;;;5058404;28;20238;-68
2023/06/18 03:05:10;;;;;;;0.00;0.00;;;;;;;;;;5039571;28;20228;-68
2023/06/18 03:07:37;;;;;;;0.10;0.10;;;;;;;;;;5059127;28;20230;-68
2023/06/18 03:10:03;;;;;;;0.03;0.03;;;;;;;;;;5044141;28;20499;-68
2023/06/18 03:12:30;;;;;;;0.00;0.00;;;;;;;;;;5049471;28;20242;-68
2023/06/18 03:14:56;;;;;;;0.10;0.10;;;;;;;;;;5043739;28;20241;-68
2023/06/18 03:17:22;;;;;;;0.00;0.00;;;;;;;;;;5049443;28;20274;-68
2023/06/18 03:19:49;;;;;;;0.10;0.10;;;;;;;;;;5044035;28;20243;-68
2023/06/18 03:22:17;;;;;;;0.10;0.10;;;;;;;;;;5049282;28;20260;-68
2023/06/18 03:24:43;;;;;;;0.10;0.10;;;;;;;;;;5043673;28;20205;-68
2023/06/18 03:27:09;;;;;;;0.10;0.10;;;;;;;;;;5049038;28;20296;-68
2023/06/18 03:29:36;;;;;;;0.10;0.10;;;;;;;;;;5043894;28;20241;-68
2023/06/18 03:32:03;;;;;;;0.15;0.15;;;;;;;;;;5048496;28;20525;-68
2023/06/18 03:34:31;;;;;;;0.08;0.08;;;;;;;;;;5044315;28;20264;-67
2023/06/18 03:37:00;;;;;;;0.10;0.10;;;;;;;;;;5047638;28;20282;-68
2023/06/18 03:39:28;;;;;;;0.10;0.10;;;;;;;;;;5044665;28;20205;-68
2023/06/18 03:41:54;;;;;;;0.00;0.00;;;;;;;;;;5047286;28;20452;-68
2023/06/18 03:44:21;;;;;;;0.10;0.10;;;;;;;;;;5045382;28;20396;-68
2023/06/18 03:46:47;;;;;;;0.10;0.10;;;;;;;;;;5046202;28;20248;-69
2023/06/18 03:49:13;;;;;;;0.00;0.00;;;;;;;;;;5046298;28;20207;-68
2023/06/18 03:51:40;;;;;;;0.05;0.05;;;;;;;;;;5045414;28;20263;-68
2023/06/18 03:54:06;;;;;;;0.03;0.03;;;;;;;;;;5047185;28;20246;-67
2023/06/18 03:56:34;;;;;;;0.10;0.10;;;;;;;;;;5047632;28;20396;-68
2023/06/18 03:59:00;;;;;;;0.00;0.00;;;;;;;;;;5051634;28;20230;-68
2023/06/18 04:01:27;;;;;;;0.00;0.00;;;;;;;;;;5046492;28;20258;-68
2023/06/18 04:03:53;;;;;;;0.03;0.03;;;;;;;;;;5053496;28;20215;-68
2023/06/18 04:06:20;;;;;;;0.22;0.22;;;;;;;;;;5046579;28;20239;-68
2023/06/18 04:08:46;;;;;;;0.00;0.00;;;;;;;;;;5053657;28;20206;-68
2023/06/18 04:11:12;;;;;;;0.10;0.10;;;;;;;;;;5045707;28;20260;-68
2023/06/18 04:13:41;;;;;;;0.00;0.00;;;;;;;;;;5054422;28;20274;-68
2023/06/18 04:16:07;;;;;;;0.35;0.35;;;;;;;;;;5044874;28;20241;-68
2023/06/18 04:18:33;;;;;;;0.10;0.10;;;;;;;;;;5055047;28;20508;-68
2023/06/18 04:21:00;;;;;;;0.00;0.00;;;;;;;;;;5043905;28;20591;-68
2023/06/18 04:23:27;;;;;;;0.10;0.10;;;;;;;;;;5055932;28;20568;-68
2023/06/18 04:25:53;;;;;;;0.10;0.10;;;;;;;;;;5043002;28;20295;-68
2023/06/18 04:28:20;;;;;;;0.00;0.00;;;;;;;;;;5056633;28;20272;-68
2023/06/18 04:30:48;;;;;;;0.10;0.10;;;;;;;;;;5042046;28;20492;-68
2023/06/18 04:33:14;;;;;;;0.10;0.10;;;;;;;;;;5057374;28;20397;-68
2023/06/18 04:35:40;;;;;;;0.10;0.10;;;;;;;;;;5040825;28;20255;-68
2023/06/18 04:38:07;;;;;;;0.10;0.10;;;;;;;;;;5058237;28;20397;-70
2023/06/18 04:40:33;;;;;;;0.95;0.95;;;;;;;;;;5040299;28;20244;-68
2023/06/18 04:42:59;;;;;;;0.10;0.10;;;;;;;;;;5058723;28;20300;-68
2023/06/18 04:45:26;;;;;;;0.10;0.10;;;;;;;;;;5039287;28;20241;-68
2023/06/18 04:47:54;;;;;;;0.07;0.07;;;;;;;;;;5059733;28;20276;-68
2023/06/18 04:50:21;;;;;;;0.10;0.10;;;;;;;;;;5038148;28;20214;-68
2023/06/18 04:52:47;;;;;;;0.17;0.17;;;;;;;;;;5060221;28;20248;-68
2023/06/18 04:55:14;;;;;;;0.10;0.10;;;;;;;;;;5037379;28;20221;-68
2023/06/18 04:57:40;;;;;;;0.10;0.10;;;;;;;;;;5060794;28;20205;-68
2023/06/18 05:00:08;;;;;;;0.10;0.10;;;;;;;;;;5046059;28;20259;-69
2023/06/18 05:02:35;;;;;;;0.10;0.10;;;;;;;;;;5035111;28;20235;-68
2023/06/18 05:05:02;;;;;;;0.10;0.10;;;;;;;;;;5046439;28;20204;-68
2023/06/18 05:07:29;;;;;;;0.00;0.00;;;;;;;;;;5051260;28;20250;-68
2023/06/18 05:09:55;;;;;;;0.10;0.10;;;;;;;;;;5046115;28;20280;-68
2023/06/18 05:12:21;;;;;;;0.10;0.10;;;;;;;;;;5051722;28;20319;-68
2023/06/18 05:14:48;;;;;;;0.20;0.20;;;;;;;;;;5045934;28;20205;-68
2023/06/18 05:17:14;;;;;;;0.10;0.10;;;;;;;;;;5051713;28;20244;-68
2023/06/18 05:19:42;;;;;;;0.10;0.10;;;;;;;;;;5046206;28;20246;-68
2023/06/18 05:22:10;;;;;;;0.00;0.00;;;;;;;;;;5051440;28;20560;-68
2023/06/18 05:24:37;;;;;;;0.10;0.10;;;;;;;;;;5046181;28;20243;-68
2023/06/18 05:27:03;;;;;;;0.05;0.05;;;;;;;;;;5050699;28;20242;-68
2023/06/18 05:29:29;;;;;;;0.45;0.45;;;;;;;;;;5046589;28;20273;-67
2023/06/18 05:31:56;;;;;;;0.03;0.03;;;;;;;;;;5049668;28;20244;-68
2023/06/18 05:34:22;;;;;;;0.03;0.03;;;;;;;;;;5047472;28;20451;-68
2023/06/18 05:36:48;;;;;;;0.03;0.03;;;;;;;;;;5048623;28;20251;-68
2023/06/18 05:39:16;;;;;;;0.03;0.03;;;;;;;;;;5048229;28;20272;-69
2023/06/18 05:41:42;;;;;;;0.10;0.10;;;;;;;;;;5047686;28;20290;-68
2023/06/18 05:44:09;;;;;;;0.10;0.10;;;;;;;;;;5048593;28;20241;-68
2023/06/18 05:46:35;;;;;;;0.10;0.10;;;;;;;;;;5046884;28;20306;-68
2023/06/18 05:49:01;;;;;;;0.10;0.10;;;;;;;;;;5049620;28;20281;-68
2023/06/18 05:51:28;;;;;;;0.10;0.10;;;;;;;;;;5045787;28;20253;-68
2023/06/18 05:53:54;;;;;;;0.10;0.10;;;;;;;;;;5050445;28;20274;-68
2023/06/18 05:56:22;;;;;;;0.10;0.10;;;;;;;;;;5044853;28;20305;-68
2023/06/18 05:58:49;;;;;;;0.00;0.00;;;;;;;;;;5051173;28;20240;-68
2023/06/18 06:01:15;;;;;;;0.10;0.10;;;;;;;;;;5043533;28;20259;-68
2023/06/18 06:03:42;;;;;;;0.32;0.32;;;;;;;;;;5052294;28;20207;-68
2023/06/18 06:06:08;;;;;;;0.00;0.00;;;;;;;;;;5043042;28;20257;-68
2023/06/18 06:08:34;;;;;;;0.10;0.10;;;;;;;;;;5052739;28;20214;-68
2023/06/18 06:11:01;;;;;;;0.10;0.10;;;;;;;;;;5041999;28;20240;-67
2023/06/18 06:13:28;;;;;;;0.03;0.03;;;;;;;;;;5053686;28;20208;-74
2023/06/18 06:15:55;;;;;;;0.10;0.10;;;;;;;;;;5041103;28;20299;-74
2023/06/18 06:18:21;;;;;;;0.10;0.10;;;;;;;;;;5053163;28;20236;-74
2023/06/18 06:20:47;;;;;;;0.10;0.10;;;;;;;;;;5039895;28;20267;-74
2023/06/18 06:23:14;;;;;;;0.25;0.25;;;;;;;;;;5055147;28;20396;-74
2023/06/18 06:25:40;;;;;;;0.00;0.00;;;;;;;;;;5039019;28;20488;-74
2023/06/18 06:28:07;;;;;;;0.00;0.00;;;;;;;;;;5056029;28;20207;-74
2023/06/18 06:30:35;;;;;;;0.10;0.10;;;;;;;;;;5038621;28;20249;-74
2023/06/18 06:33:02;;;;;;;0.10;0.10;;;;;;;;;;5057052;28;20271;-75
2023/06/18 06:35:29;;;;;;;0.10;0.10;;;;;;;;;;5037327;28;20250;-74
2023/06/18 06:37:56;;;;;;;1.60;1.55;;;;;;;;;;5057161;28;20210;-74
2023/06/18 06:40:22;;;;;;;0.10;0.10;;;;;;;;;;5036541;28;20206;-74
2023/06/18 06:42:48;;;;;;;0.00;0.00;;;;;;;;;;5057874;28;20246;-74
2023/06/18 06:45:15;;;;;;;0.10;0.10;;;;;;;;;;5035486;28;20262;-74
2023/06/18 06:47:43;;;;;;;0.25;0.25;;;;;;;;;;5058793;28;20207;-74
2023/06/18 06:50:09;;;;;;;0.10;0.10;;;;;;;;;;5034682;28;20430;-74
2023/06/18 06:52:35;;;;;;;0.00;0.00;;;;;;;;;;5059420;28;20241;-74
2023/06/18 06:55:02;;;;;;;0.00;0.00;;;;;;;;;;5044116;28;20215;-74
2023/06/18 06:57:28;;;;;;;0.00;0.00;;;;;;;;;;5049683;28;20422;-75
2023/06/18 06:59:54;;;;;;;0.00;0.00;;;;;;;;;;5044246;28;20257;-74
2023/06/18 07:02:21;;;;;;;0.00;0.00;;;;;;;;;;5049724;28;20292;-74
2023/06/18 07:04:49;;;;;;;0.57;0.57;;;;;;;;;;5044339;28;20213;-74
2023/06/18 07:07:15;;;;;;;0.00;0.00;;;;;;;;;;5049589;28;20239;-74
2023/06/18 07:09:42;;;;;;;0.00;0.00;;;;;;;;;;5044281;28;20242;-75
2023/06/18 07:12:08;;;;;;;0.10;0.10;;;;;;;;;;5049537;28;20317;-74
2023/06/18 07:14:35;;;;;;;0.00;0.00;;;;;;;;;;5043915;28;20242;-74
2023/06/18 07:17:01;;;;;;;0.00;0.00;;;;;;;;;;5048430;28;20248;-74
2023/06/18 07:19:28;;;;;;;0.00;0.00;;;;;;;;;;5044640;28;20250;-72
2023/06/18 07:21:55;;;;;;;0.05;0.05;;;;;;;;;;5047369;28;20246;-75
2023/06/18 07:24:22;;;;;;;0.05;0.05;;;;;;;;;;5045316;28;20233;-76
2023/06/18 07:26:48;;;;;;;0.10;0.10;;;;;;;;;;5046565;28;20256;-79
2023/06/18 07:29:14;;;;;;;0.08;0.08;;;;;;;;;;5046274;28;20274;-73
2023/06/18 07:31:41;;;;;;;0.10;0.10;;;;;;;;;;5045471;28;20269;-72
2023/06/18 07:34:08;;;;;;;0.00;0.00;;;;;;;;;;5047350;28;20426;-71
2023/06/18 07:36:34;;;;;;;0.80;0.80;;;;;;;;;;5044605;28;20241;-72
2023/06/18 07:39:02;;;;;;;0.00;0.00;;;;;;;;;;5048042;28;20211;-73
2023/06/18 07:41:28;;;;;;;0.00;0.00;;;;;;;;;;5044047;28;20495;-72
2023/06/18 07:43:54;;;;;;;0.10;0.10;;;;;;;;;;5048425;28;20296;-75
2023/06/18 07:46:21;;;;;;;0.10;0.10;;;;;;;;;;5043017;28;20262;-73
2023/06/18 07:48:47;;;;;;;0.00;0.00;;;;;;;;;;5049527;28;20208;-74
2023/06/18 07:51:14;;;;;;;0.30;0.30;;;;;;;;;;5042278;28;20258;-75
2023/06/18 07:53:41;;;;;;;0.00;0.00;;;;;;;;;;5050515;28;20247;-73
2023/06/18 07:56:08;;;;;;;0.00;0.00;;;;;;;;;;5040995;28;20283;-73
2023/06/18 07:58:35;;;;;;;0.10;0.10;;;;;;;;;;5051305;28;20270;-74
2023/06/18 08:01:01;;;;;;;0.00;0.00;;;;;;;;;;5040267;28;20519;-73
2023/06/18 08:03:27;;;;;;;0.00;0.00;;;;;;;;;;5052495;28;20239;-74
2023/06/18 08:05:54;;;;;;;0.10;0.10;;;;;;;;;;5039389;28;20271;-74
2023/06/18 08:08:20;;;;;;;0.00;0.00;;;;;;;;;;5053069;28;20276;-74
2023/06/18 08:10:47;;;;;;;0.00;0.00;;;;;;;;;;5038462;28;20275;-72
2023/06/18 08:13:15;;;;;;;0.00;0.00;;;;;;;;;;5053923;28;20448;-73
2023/06/18 08:15:41;;;;;;;0.00;0.00;;;;;;;;;;5037764;28;20259;-73
2023/06/18 08:18:07;;;;;;;0.00;0.00;;;;;;;;;;5054769;28;20207;-73
2023/06/18 08:20:34;;;;;;;0.00;0.00;;;;;;;;;;5036585;28;20243;-74
2023/06/18 08:23:01;;;;;;;0.13;0.13;;;;;;;;;;5055416;28;20205;-72
2023/06/18 08:25:27;;;;;;;0.10;0.10;;;;;;;;;;5036192;28;20362;-72
2023/06/18 08:27:54;;;;;;;0.00;0.00;;;;;;;;;;5056196;28;20268;-74
2023/06/18 08:30:22;;;;;;;0.00;0.00;;;;;;;;;;5034342;28;20209;-73
2023/06/18 08:32:49;;;;;;;0.00;0.00;;;;;;;;;;5057280;28;20243;-74
2023/06/18 08:35:16;;;;;;;0.08;0.08;;;;;;;;;;5034342;28;20277;-74
2023/06/18 08:37:43;;;;;;;0.00;0.00;;;;;;;;;;5057366;28;20236;-73
2023/06/18 08:40:13;;;;;;;4.20;2.85;;;;;;;;;;5034838;28;20397;-72
2023/06/18 08:42:39;;;;;;;0.00;0.00;;;;;;;;;;5060928;28;20228;-73
2023/06/18 08:45:06;;;;;;;0.00;0.00;;;;;;;;;;5046960;28;20311;-77
2023/06/18 08:47:34;;;;;;;0.00;0.00;;;;;;;;;;5035335;28;20460;-76
2023/06/18 08:50:01;;;;;;;0.00;0.00;;;;;;;;;;5046878;28;20460;-76
2023/06/18 08:52:29;;;;;;;0.00;0.00;;;;;;;;;;5052231;28;20266;-76
2023/06/18 08:54:57;;;;;;;0.00;0.00;;;;;;;;;;5046802;28;20527;-77
2023/06/18 08:57:27;;;;;;;0.00;0.00;;;;;;;;;;5052036;28;20246;-77
2023/06/18 08:59:54;;;;;;;0.03;0.03;;;;;;;;;;5046589;28;20274;-77
2023/06/18 09:02:21;;;;;;;0.00;0.00;;;;;;;;;;5051909;28;20294;-77
2023/06/18 09:04:49;;;;;;;0.00;0.00;;;;;;;;;;5046270;28;20205;-77
2023/06/18 09:07:16;;;;;;;0.00;0.00;;;;;;;;;;5051936;28;20231;-78
2023/06/18 09:09:42;;;;;;;0.00;0.00;;;;;;;;;;5046152;28;20279;-77
2023/06/18 09:12:10;;;;;;;0.00;0.00;;;;;;;;;;5051753;28;20244;-77
2023/06/18 09:14:36;;;;;;;0.00;0.00;;;;;;;;;;5046376;28;20236;-77
2023/06/18 09:17:03;;;;;;;0.00;0.00;;;;;;;;;;5050670;28;20240;-78
2023/06/18 09:19:30;;;;;;;20.17;19.15;;;;;;;;;;5046449;28;20204;-77
2023/06/18 09:22:11;;;;;;;0.00;0.00;;;;;;;;;;5050006;28;20239;-77
2023/06/18 09:24:37;;;;;;;0.00;0.00;;;;;;;;;;5046256;28;20269;-77
2023/06/18 09:27:05;;;;;;;0.00;0.00;;;;;;;;;;5050908;28;20428;-78
2023/06/18 09:29:34;;;;;;;0.00;0.00;;;;;;;;;;5046307;28;20395;-78
2023/06/18 09:32:05;;;;;;;0.00;0.00;;;;;;;;;;5050193;28;20264;-78
2023/06/18 09:34:32;;;;;;;0.00;0.00;;;;;;;;;;5046235;28;20442;-77
2023/06/18 09:36:59;;;;;;;0.08;0.08;;;;;;;;;;5049963;28;20618;-77
2023/06/18 09:39:27;;;;;;;0.00;0.00;;;;;;;;;;5046701;28;20275;-77
2023/06/18 09:41:53;;;;;;;0.10;0.10;;;;;;;;;;5049116;28;20259;-76
2023/06/18 09:44:21;;;;;;;0.08;0.08;;;;;;;;;;5047241;28;20264;-77
2023/06/18 09:46:48;;;;;;;0.10;0.10;;;;;;;;;;5048360;28;20423;-77
2023/06/18 09:49:16;;;;;;;0.10;0.10;;;;;;;;;;5048095;28;20424;-77
2023/06/18 09:51:44;;;;;;;0.00;0.00;;;;;;;;;;5047442;28;20239;-76
2023/06/18 09:54:12;;;;;;;0.00;0.00;;;;;;;;;;5048168;28;20576;-77
2023/06/18 09:56:39;;;;;;;0.00;0.00;;;;;;;;;;5047062;28;20251;-77
2023/06/18 09:59:05;;;;;;;0.43;0.43;;;;;;;;;;5049022;28;20256;-77
2023/06/18 10:01:45;;;;;;;0.28;0.28;;;;;;;;;;5045350;28;20236;-77
2023/06/18 10:04:14;;;;;;;0.00;0.00;;;;;;;;;;5048679;28;20217;-77
2023/06/18 10:06:41;;;;;;;0.10;0.10;;;;;;;;;;5046878;28;20307;-77
2023/06/18 10:09:08;;;;;;;0.00;0.00;;;;;;;;;;5048357;28;20204;-77
2023/06/18 10:11:37;;;;;;;0.00;0.00;;;;;;;;;;5046392;28;20303;-77
2023/06/18 10:14:06;;;;;;;0.08;0.08;;;;;;;;;;5049090;28;20205;-78
2023/06/18 10:16:33;;;;;;;0.10;0.10;;;;;;;;;;5045752;28;20239;-77
2023/06/18 10:19:03;;;;;;;0.00;0.00;;;;;;;;;;5049258;28;20205;-77
2023/06/18 10:21:31;;;;;;;0.00;0.00;;;;;;;;;;5045461;28;20242;-77
2023/06/18 10:24:03;;;;;;;0.10;0.10;;;;;;;;;;5049286;28;20211;-78
2023/06/18 10:26:30;;;;;;;0.00;0.00;;;;;;;;;;5045423;28;20246;-78
2023/06/18 10:28:58;;;;;;;0.00;0.00;;;;;;;;;;5049608;28;20458;-78
2023/06/18 10:31:25;;;;;;;0.10;0.10;;;;;;;;;;5044647;28;20243;-78
2023/06/18 10:33:52;;;;;;;0.10;0.10;;;;;;;;;;5050139;28;20211;-78
2023/06/18 10:36:24;;;;;;;0.10;0.10;;;;;;;;;;5043477;28;20246;-79
2023/06/18 10:38:51;;;;;;;0.00;0.00;;;;;;;;;;5050114;28;20258;-78
2023/06/18 10:41:18;;;;;;;0.00;0.00;;;;;;;;;;5043431;28;20266;-79
2023/06/18 10:43:49;;;;;;;0.00;0.00;;;;;;;;;;5050364;28;20220;-79
2023/06/18 10:46:16;;;;;;;0.00;0.00;;;;;;;;;;5043017;28;20262;-78
2023/06/18 10:49:03;;;;;;;0.00;0.00;;;;;;;;;;5051077;28;20204;-79
2023/06/18 10:51:30;;;;;;;0.00;0.00;;;;;;;;;;5044890;28;20239;-78
2023/06/18 10:54:19;;;;;;;0.00;0.00;;;;;;;;;;5049079;28;20205;-78
2023/06/18 10:56:49;;;;;;;0.00;0.00;;;;;;;;;;5046642;28;20248;-78
2023/06/18 10:59:16;;;;;;;0.00;0.00;;;;;;;;;;5046604;28;20225;-79
2023/06/18 11:01:44;;;;;;;0.43;0.43;;;;;;;;;;5046268;28;20255;-79
2023/06/18 11:04:10;;;;;;;0.50;0.50;;;;;;;;;;5046898;28;20267;-78
2023/06/18 11:06:37;;;;;;;0.00;0.00;;;;;;;;;;5045649;28;20254;-79
2023/06/18 11:09:12;;;;;;;0.00;0.00;;;;;;;;;;5048114;28;20455;-79
2023/06/18 11:11:49;;;;;;;0.00;0.00;;;;;;;;;;5045711;28;20262;-78
2023/06/18 11:14:19;;;;;;;0.00;0.00;;;;;;;;;;5046625;28;20386;-78
2023/06/18 11:17:08;;;;;;;0.00;0.00;;;;;;;;;;5046418;28;20299;-78
2023/06/18 11:19:34;;;;;;;0.00;0.00;;;;;;;;;;5043762;28;20211;-78
2023/06/18 11:22:00;;;;;;;0.00;0.00;;;;;;;;;;5048354;28;20662;-78
2023/06/18 11:24:27;;;;;;;0.00;0.00;;;;;;;;;;5044556;28;20276;-78
2023/06/18 11:26:54;;;;;;;0.00;0.00;;;;;;;;;;5047352;28;20248;-78
2023/06/18 11:29:21;;;;;;;0.43;0.43;;;;;;;;;;5045736;28;20465;-79
2023/06/18 11:31:47;;;;;;;0.30;0.30;;;;;;;;;;5046268;28;20251;-78
2023/06/18 11:34:15;;;;;;;0.00;0.00;;;;;;;;;;5046169;28;20233;-78
2023/06/18 11:36:42;;;;;;;0.00;0.00;;;;;;;;;;5045652;28;20545;-78
2023/06/18 11:39:09;;;;;;;0.00;0.00;;;;;;;;;;5046929;28;20242;-78
2023/06/18 11:41:35;;;;;;;0.00;0.00;;;;;;;;;;5044836;28;20255;-79
2023/06/18 11:44:01;;;;;;;0.00;0.00;;;;;;;;;;5047547;28;20252;-78
2023/06/18 11:46:32;;;;;;;0.00;0.00;;;;;;;;;;5043942;28;20463;-79
2023/06/18 11:48:59;;;;;;;0.00;0.00;;;;;;;;;;5048287;28;20204;-78
2023/06/18 11:51:27;;;;;;;0.00;0.00;;;;;;;;;;5043259;28;20286;-78
2023/06/18 11:53:54;;;;;;;0.00;0.00;;;;;;;;;;5048873;28;20279;-78
2023/06/18 11:56:23;;;;;;;0.05;0.05;;;;;;;;;;5042899;28;20251;-78
2023/06/18 11:58:49;;;;;;;0.00;0.00;;;;;;;;;;5049029;28;20236;-78
2023/06/18 12:01:16;;;;;;;0.00;0.00;;;;;;;;;;5041771;28;20240;-78
2023/06/18 12:03:43;;;;;;;0.00;0.00;;;;;;;;;;5050439;28;20255;-78
2023/06/18 12:06:13;;;;;;;0.30;0.30;;;;;;;;;;5041118;28;20246;-78
2023/06/18 12:08:45;;;;;;;0.00;0.00;;;;;;;;;;5050487;28;20400;-78
2023/06/18 12:11:16;;;;;;;0.00;0.00;;;;;;;;;;5041626;28;20239;-78
2023/06/18 12:13:44;;;;;;;0.10;0.10;;;;;;;;;;5049769;28;20275;-78
2023/06/18 12:16:14;;;;;;;0.00;0.00;;;;;;;;;;5042299;28;20243;-78
2023/06/18 12:18:42;;;;;;;0.20;0.20;;;;;;;;;;5054077;28;20228;-78
2023/06/18 12:21:09;;;;;;;0.00;0.00;;;;;;;;;;5045148;28;20262;-78
2023/06/18 12:23:37;;;;;;;0.00;0.00;;;;;;;;;;5054540;28;20205;-78
2023/06/18 12:26:05;;;;;;;0.00;0.00;;;;;;;;;;5044264;28;20445;-78
2023/06/18 12:28:33;;;;;;;0.10;0.10;;;;;;;;;;5055300;28;20276;-78
2023/06/18 12:31:06;;;;;;;0.00;0.00;;;;;;;;;;5043620;28;20244;-78
2023/06/18 12:33:37;;;;;;;0.00;0.00;;;;;;;;;;5054994;28;20251;-78
2023/06/18 12:36:04;;;;;;;0.00;0.00;;;;;;;;;;5044091;28;20487;-77
2023/06/18 12:38:39;;;;;;;0.00;0.00;;;;;;;;;;5055223;28;20407;-78
2023/06/18 12:41:06;;;;;;;0.00;0.00;;;;;;;;;;5044126;28;20240;-78
2023/06/18 12:43:39;;;;;;;0.00;0.00;;;;;;;;;;5054466;28;20216;-78
2023/06/18 12:46:05;;;;;;;0.00;0.00;;;;;;;;;;5044263;28;20240;-78
2023/06/18 12:48:37;;;;;;;0.08;0.08;;;;;;;;;;5054772;28;20406;-78
2023/06/18 12:51:03;;;;;;;0.00;0.00;;;;;;;;;;5043882;28;20303;-78
2023/06/18 12:53:31;;;;;;;0.00;0.00;;;;;;;;;;5054952;28;20204;-78
2023/06/18 12:55:58;;;;;;;0.00;0.00;;;;;;;;;;5042994;28;20433;-78
2023/06/18 12:58:27;;;;;;;0.00;0.00;;;;;;;;;;5055364;28;20259;-78
2023/06/18 13:00:54;;;;;;;0.00;0.00;;;;;;;;;;5042022;28;20243;-78
2023/06/18 13:03:21;;;;;;;0.00;0.00;;;;;;;;;;5056091;28;20445;-78
2023/06/18 13:05:48;;;;;;;0.00;0.00;;;;;;;;;;5041165;28;20247;-78
2023/06/18 13:08:16;;;;;;;0.00;0.00;;;;;;;;;;5056762;28;20239;-78
2023/06/18 13:10:42;;;;;;;0.00;0.00;;;;;;;;;;5040579;28;20262;-78
2023/06/18 13:13:09;;;;;;;0.00;0.00;;;;;;;;;;5057363;28;20239;-78
2023/06/18 13:15:36;;;;;;;0.00;0.00;;;;;;;;;;5039591;28;20236;-78
2023/06/18 13:18:03;;;;;;;0.00;0.00;;;;;;;;;;5058047;28;20295;-78
2023/06/18 13:20:29;;;;;;;0.00;0.00;;;;;;;;;;5039055;28;20592;-78
2023/06/18 13:22:57;;;;;;;0.00;0.00;;;;;;;;;;5058814;28;20275;-78
2023/06/18 13:25:23;;;;;;;1.65;1.55;;;;;;;;;;5038135;28;20205;-77
2023/06/18 13:27:49;;;;;;;0.00;0.00;;;;;;;;;;5058900;28;20239;-78
2023/06/18 13:30:16;;;;;;;0.00;0.00;;;;;;;;;;5036681;28;20247;-77
2023/06/18 13:32:44;;;;;;;0.10;0.10;;;;;;;;;;5060250;28;20232;-78
2023/06/18 13:35:12;;;;;;;0.03;0.03;;;;;;;;;;5036372;28;20205;-77
2023/06/18 13:37:38;;;;;;;0.00;0.00;;;;;;;;;;5060538;28;20455;-72
2023/06/18 13:40:05;;;;;;;0.00;0.00;;;;;;;;;;5045626;28;20232;-73
2023/06/18 13:42:31;;;;;;;0.00;0.00;;;;;;;;;;5034222;28;20244;-72
2023/06/18 13:44:58;;;;;;;0.00;0.00;;;;;;;;;;5045608;28;20243;-72
2023/06/18 13:47:25;;;;;;;0.00;0.00;;;;;;;;;;5051184;28;20247;-72
2023/06/18 13:49:54;;;;;;;0.25;0.25;;;;;;;;;;5045678;28;20211;-72
2023/06/18 13:52:20;;;;;;;0.00;0.00;;;;;;;;;;5051160;28;20256;-72
2023/06/18 13:54:47;;;;;;;5.18;2.17;;;;;;;;;;5045651;28;20205;-71
2023/06/18 13:57:14;;;;;;;0.00;0.00;;;;;;;;;;5050969;28;20239;-71
2023/06/18 13:59:40;;;;;;;0.05;0.05;;;;;;;;;;5045341;28;20479;-72
2023/06/18 14:02:07;;;;;;;0.00;0.00;;;;;;;;;;5050565;28;20251;-71
2023/06/18 14:04:35;;;;;;;0.00;0.00;;;;;;;;;;5045336;28;20251;-72
2023/06/18 14:07:03;;;;;;;0.20;0.20;;;;;;;;;;5049723;28;20240;-72
2023/06/18 14:09:29;;;;;;;0.10;0.10;;;;;;;;;;5046019;28;20429;-72
2023/06/18 14:11:56;;;;;;;0.73;0.73;;;;;;;;;;5049043;28;20240;-71
2023/06/18 14:14:23;;;;;;;0.20;0.20;;;;;;;;;;5046364;28;20211;-72
2023/06/18 14:16:50;;;;;;;0.00;0.00;;;;;;;;;;5048071;28;20260;-72
2023/06/18 14:19:17;;;;;;;0.00;0.00;;;;;;;;;;5046995;28;20225;-72
2023/06/18 14:21:43;;;;;;;0.00;0.00;;;;;;;;;;5047001;28;20290;-72
2023/06/18 14:24:13;;;;;;;0.00;0.00;;;;;;;;;;5047855;28;20283;-71
2023/06/18 14:26:39;;;;;;;0.00;0.00;;;;;;;;;;5046531;28;20243;-72
2023/06/18 14:29:05;;;;;;;0.00;0.00;;;;;;;;;;5048653;28;20445;-72
2023/06/18 14:31:32;;;;;;;0.00;0.00;;;;;;;;;;5045720;28;20590;-72
2023/06/18 14:33:58;;;;;;;0.00;0.00;;;;;;;;;;5049141;28;20243;-72
2023/06/18 14:36:25;;;;;;;0.00;0.00;;;;;;;;;;5044734;28;20264;-73
2023/06/18 14:38:51;;;;;;;0.00;0.00;;;;;;;;;;5049432;28;20229;-74
2023/06/18 14:41:20;;;;;;;0.00;0.00;;;;;;;;;;5043457;28;20283;-74
2023/06/18 14:43:46;;;;;;;0.00;0.00;;;;;;;;;;5050589;28;20509;-74